createdAt,value
2018-06-12T00:00:38.564Z,19.1
2018-06-12T00:01:39.953Z,18.9
2018-06-12T00:02:41.347Z,18.9
2018-06-12T00:03:42.695Z,18.8
2018-06-12T00:04:44.299Z,18.8
2018-06-12T00:05:46.694Z,18.8
2018-06-12T00:06:48.061Z,18.8
2018-06-12T00:07:49.530Z,18.9
2018-06-12T00:08:50.915Z,19.1
2018-06-12T00:09:52.340Z,19
2018-06-12T00:10:56.236Z,18.8
2018-06-12T00:11:58.422Z,18.8
2018-06-12T00:13:00.226Z,18.8
2018-06-12T00:14:02.883Z,18.8
2018-06-12T00:15:04.261Z,18.8
2018-06-12T00:16:08.474Z,18.7
2018-06-12T00:17:10.299Z,18.6
2018-06-12T00:18:11.719Z,18.7
2018-06-12T00:19:13.095Z,18.9
2018-06-12T00:20:14.577Z,18.7
2018-06-12T00:21:16.776Z,18.7
2018-06-12T00:22:20.422Z,18.7
2018-06-12T00:23:21.985Z,18.8
2018-06-12T00:24:25.632Z,18.6
2018-06-12T00:25:29.404Z,18.5
2018-06-12T00:26:30.792Z,18.5
2018-06-12T00:27:45.051Z,18.6
2018-06-12T00:28:46.432Z,18.5
2018-06-12T00:29:47.901Z,18.5
2018-06-12T00:30:49.282Z,18.4
2018-06-12T00:31:50.750Z,18.5
2018-06-12T00:32:52.338Z,18.6
2018-06-12T00:33:53.779Z,18.5
2018-06-12T00:34:55.342Z,18.6
2018-06-12T00:35:57.134Z,18.5
2018-06-12T00:36:58.598Z,18.4
2018-06-12T00:38:00.069Z,18.5
2018-06-12T00:39:01.689Z,18.6
2018-06-12T00:40:03.215Z,18.6
2018-06-12T00:41:04.970Z,18.7
2018-06-12T00:42:06.659Z,18.6
2018-06-12T00:43:09.205Z,18.5
2018-06-12T00:44:11.073Z,18.5
2018-06-12T00:45:12.886Z,18.4
2018-06-12T00:46:17.981Z,18.4
2018-06-12T00:47:19.821Z,18.6
2018-06-12T00:48:21.640Z,18.5
2018-06-12T00:49:23.185Z,18.4
2018-06-12T00:50:24.627Z,18.4
2018-06-12T00:51:26.066Z,18.3
2018-06-12T00:52:27.639Z,18.4
2018-06-12T00:53:29.219Z,18.5
2018-06-12T00:54:34.911Z,18.4
2018-06-12T00:55:37.078Z,18.5
2018-06-12T00:56:38.738Z,18.3
2018-06-12T00:57:40.627Z,18.4
2018-06-12T00:58:45.098Z,18.2
2018-06-12T00:59:46.691Z,18.3
2018-06-12T01:00:49.121Z,18.5
2018-06-12T01:01:50.737Z,18.3
2018-06-12T01:02:52.249Z,18.2
2018-06-12T01:03:53.795Z,18.1
2018-06-12T01:04:55.930Z,18.2
2018-06-12T01:05:57.815Z,18.2
2018-06-12T01:07:00.870Z,18.1
2018-06-12T01:08:02.412Z,18.1
2018-06-12T01:09:03.924Z,18.2
2018-06-12T01:10:05.505Z,18.2
2018-06-12T01:11:06.919Z,18.1
2018-06-12T01:12:10.722Z,18.2
2018-06-12T01:13:12.351Z,18.2
2018-06-12T01:14:16.689Z,18.4
2018-06-12T01:15:18.349Z,18.2
2018-06-12T01:16:19.787Z,18.2
2018-06-12T01:17:21.475Z,18.2
2018-06-12T01:18:23.196Z,18.1
2018-06-12T01:19:24.881Z,18.1
2018-06-12T01:20:26.433Z,18.1
2018-06-12T01:21:30.310Z,18.1
2018-06-12T01:22:37.877Z,18.1
2018-06-12T01:23:39.385Z,18.2
2018-06-12T01:24:40.987Z,18
2018-06-12T01:25:43.327Z,18
2018-06-12T01:26:44.896Z,17.9
2018-06-12T01:27:46.293Z,17.9
2018-06-12T01:28:48.010Z,17.9
2018-06-12T01:29:49.731Z,18.1
2018-06-12T01:30:51.184Z,18.1
2018-06-12T01:31:53.362Z,18
2018-06-12T01:32:57.445Z,18
2018-06-12T01:33:58.904Z,18
2018-06-12T01:35:00.504Z,18
2018-06-12T01:36:02.369Z,18
2018-06-12T01:37:03.932Z,18.1
2018-06-12T01:38:05.304Z,18.1
2018-06-12T01:39:08.092Z,18.1
2018-06-12T01:40:09.433Z,18
2018-06-12T01:41:10.738Z,17.9
2018-06-12T01:42:12.449Z,18
2018-06-12T01:43:17.343Z,18
2018-06-12T01:44:19.685Z,17.9
2018-06-12T01:45:21.921Z,17.9
2018-06-12T01:46:23.553Z,17.8
2018-06-12T01:47:24.964Z,17.9
2018-06-12T01:48:26.313Z,17.8
2018-06-12T01:49:30.902Z,17.8
2018-06-12T01:50:32.251Z,17.9
2018-06-12T01:51:33.615Z,17.7
2018-06-12T01:52:35.211Z,17.9
2018-06-12T01:53:36.878Z,17.8
2018-06-12T01:54:38.152Z,17.8
2018-06-12T01:55:39.486Z,17.7
2018-06-12T01:56:42.894Z,17.6
2018-06-12T01:57:44.379Z,17.7
2018-06-12T01:58:45.776Z,17.7
2018-06-12T01:59:47.180Z,17.6
2018-06-12T02:00:51.926Z,17.6
2018-06-12T02:01:53.332Z,17.6
2018-06-12T02:02:57.526Z,17.5
2018-06-12T02:04:01.218Z,17.5
2018-06-12T02:05:02.529Z,17.6
2018-06-12T02:06:03.932Z,17.7
2018-06-12T02:07:05.565Z,17.5
2018-06-12T02:08:07.187Z,17.5
2018-06-12T02:10:36.425Z,17.4
2018-06-12T02:15:19.312Z,17.5
2018-06-12T02:16:20.912Z,17.5
2018-06-12T02:17:22.389Z,17.4
2018-06-12T02:18:23.704Z,17.4
2018-06-12T02:19:26.819Z,17.5
2018-06-12T02:20:31.612Z,17.5
2018-06-12T02:21:32.898Z,17.7
2018-06-12T02:22:34.241Z,17.5
2018-06-12T02:23:35.549Z,17.6
2018-06-12T02:24:37.039Z,17.4
2018-06-12T02:25:38.428Z,17.6
2018-06-12T02:26:40.167Z,17.4
2018-06-12T02:27:42.392Z,17.5
2018-06-12T02:28:43.711Z,17.4
2018-06-12T02:29:45.030Z,17.4
2018-06-12T02:30:49.307Z,17.6
2018-06-12T02:31:50.653Z,17.4
2018-06-12T02:32:51.933Z,17.3
2018-06-12T02:33:53.224Z,17.4
2018-06-12T02:34:54.625Z,17.3
2018-06-12T02:35:56.163Z,17.3
2018-06-12T02:36:57.489Z,17.2
2018-06-12T02:37:58.973Z,17.2
2018-06-12T02:39:00.310Z,17.3
2018-06-12T02:40:01.824Z,17.3
2018-06-12T02:41:03.217Z,17.4
2018-06-12T02:42:04.523Z,17.2
2018-06-12T02:43:05.884Z,17.1
2018-06-12T02:44:07.337Z,17.2
2018-06-12T02:45:08.657Z,17.1
2018-06-12T02:46:10.035Z,17.1
2018-06-12T02:47:11.407Z,17.2
2018-06-12T02:48:12.754Z,17
2018-06-12T02:49:14.075Z,17.2
2018-06-12T02:50:15.412Z,17
2018-06-12T02:51:16.987Z,17.1
2018-06-12T02:52:20.017Z,17.2
2018-06-12T02:53:21.995Z,17
2018-06-12T02:54:23.841Z,17.1
2018-06-12T02:55:26.002Z,17.2
2018-06-12T02:56:27.368Z,17.1
2018-06-12T02:57:28.658Z,17.1
2018-06-12T02:58:29.963Z,16.9
2018-06-12T02:59:31.285Z,17
2018-06-12T03:00:32.705Z,16.9
2018-06-12T03:01:34.060Z,17
2018-06-12T03:02:35.842Z,17
2018-06-12T03:03:39.724Z,17.1
2018-06-12T03:04:42.013Z,17
2018-06-12T03:05:43.419Z,17
2018-06-12T03:06:46.922Z,17
2018-06-12T03:07:48.240Z,17.1
2018-06-12T03:08:49.552Z,17.4
2018-06-12T03:09:50.914Z,17.3
2018-06-12T03:10:52.230Z,17.2
2018-06-12T03:11:53.556Z,17
2018-06-12T03:12:54.992Z,17.1
2018-06-12T03:13:56.360Z,16.9
2018-06-12T03:14:58.771Z,16.8
2018-06-12T03:16:00.517Z,16.9
2018-06-12T03:17:05.009Z,17
2018-06-12T03:18:06.338Z,16.9
2018-06-12T03:19:07.720Z,16.9
2018-06-12T03:20:09.208Z,16.8
2018-06-12T03:21:11.520Z,16.8
2018-06-12T03:22:12.917Z,16.8
2018-06-12T03:23:16.442Z,16.7
2018-06-12T03:24:17.810Z,16.8
2018-06-12T03:25:19.100Z,16.7
2018-06-12T03:26:20.477Z,16.6
2018-06-12T03:27:21.880Z,16.8
2018-06-12T03:28:23.191Z,16.7
2018-06-12T03:29:24.546Z,16.9
2018-06-12T03:30:25.873Z,16.9
2018-06-12T03:31:27.292Z,16.7
2018-06-12T03:32:28.671Z,16.7
2018-06-12T03:33:32.093Z,16.8
2018-06-12T03:34:33.442Z,16.7
2018-06-12T03:35:35.778Z,16.6
2018-06-12T03:36:37.424Z,16.6
2018-06-12T03:37:39.936Z,16.7
2018-06-12T03:38:41.236Z,16.7
2018-06-12T03:39:42.520Z,16.6
2018-06-12T03:40:43.845Z,16.8
2018-06-12T03:41:45.171Z,16.7
2018-06-12T03:42:46.592Z,16.8
2018-06-12T03:43:47.931Z,16.8
2018-06-12T03:44:49.212Z,16.5
2018-06-12T03:45:50.705Z,16.6
2018-06-12T03:46:52.301Z,16.5
2018-06-12T03:47:53.719Z,16.7
2018-06-12T03:48:55.232Z,16.7
2018-06-12T03:49:56.559Z,16.6
2018-06-12T03:50:57.936Z,16.7
2018-06-12T03:51:59.238Z,16.6
2018-06-12T03:53:00.810Z,16.6
2018-06-12T03:54:02.147Z,16.5
2018-06-12T03:55:03.456Z,16.5
2018-06-12T03:56:04.733Z,16.5
2018-06-12T03:57:06.203Z,16.5
2018-06-12T03:58:07.602Z,16.5
2018-06-12T03:59:08.924Z,16.5
2018-06-12T04:00:10.278Z,16.4
2018-06-12T04:01:11.576Z,16.5
2018-06-12T04:02:12.998Z,16.5
2018-06-12T04:03:14.438Z,16.4
2018-06-12T04:04:15.821Z,16.4
2018-06-12T04:05:17.201Z,16.4
2018-06-12T04:06:18.553Z,16.5
2018-06-12T04:07:19.893Z,16.6
2018-06-12T04:08:21.541Z,16.5
2018-06-12T04:09:22.840Z,16.6
2018-06-12T04:10:24.139Z,16.5
2018-06-12T04:11:25.420Z,16.5
2018-06-12T04:12:27.893Z,16.5
2018-06-12T04:13:29.310Z,16.6
2018-06-12T04:14:30.888Z,16.7
2018-06-12T04:15:32.221Z,16.6
2018-06-12T04:16:33.978Z,16.5
2018-06-12T04:17:35.699Z,16.5
2018-06-12T04:18:37.077Z,16.6
2018-06-12T04:19:38.680Z,16.5
2018-06-12T04:20:39.981Z,16.4
2018-06-12T04:21:41.317Z,16.5
2018-06-12T04:22:42.892Z,16.6
2018-06-12T04:23:44.288Z,16.5
2018-06-12T04:24:45.696Z,16.6
2018-06-12T04:25:47.421Z,16.5
2018-06-12T04:26:49.296Z,16.5
2018-06-12T04:27:50.643Z,16.5
2018-06-12T04:28:52.060Z,16.5
2018-06-12T04:29:53.627Z,16.5
2018-06-12T04:30:55.031Z,16.6
2018-06-12T04:31:56.362Z,16.5
2018-06-12T04:32:57.711Z,16.5
2018-06-12T04:33:59.207Z,16.5
2018-06-12T04:35:00.521Z,16.5
2018-06-12T04:36:01.954Z,16.5
2018-06-12T04:37:03.287Z,16.4
2018-06-12T04:38:04.986Z,16.5
2018-06-12T04:39:06.492Z,16.5
2018-06-12T04:40:07.868Z,16.7
2018-06-12T04:41:09.294Z,16.6
2018-06-12T04:42:12.106Z,16.6
2018-06-12T04:43:13.428Z,16.5
2018-06-12T04:44:14.787Z,16.6
2018-06-12T04:45:16.135Z,16.6
2018-06-12T04:46:18.201Z,16.8
2018-06-12T04:47:20.959Z,16.8
2018-06-12T04:48:22.541Z,16.8
2018-06-12T04:49:23.957Z,16.7
2018-06-12T04:50:25.322Z,16.8
2018-06-12T04:51:26.702Z,16.8
2018-06-12T04:52:28.034Z,16.7
2018-06-12T04:53:29.643Z,16.9
2018-06-12T04:54:31.256Z,16.8
2018-06-12T04:55:32.703Z,16.8
2018-06-12T04:56:34.016Z,16.9
2018-06-12T04:57:35.666Z,17.1
2018-06-12T04:58:37.342Z,17.1
2018-06-12T04:59:39.804Z,17
2018-06-12T05:00:41.349Z,17
2018-06-12T05:01:42.868Z,17
2018-06-12T05:02:44.238Z,17.2
2018-06-12T05:03:46.805Z,17.2
2018-06-12T05:04:48.217Z,17.4
2018-06-12T05:05:49.630Z,17.7
2018-06-12T05:06:52.344Z,17.9
2018-06-12T05:07:55.260Z,18.2
2018-06-12T05:08:56.722Z,18
2018-06-12T05:09:59.313Z,18
2018-06-12T05:11:00.700Z,18
2018-06-12T05:12:03.048Z,18
2018-06-12T05:13:04.476Z,18
2018-06-12T05:14:06.181Z,17.9
2018-06-12T05:15:07.629Z,18
2018-06-12T05:16:09.002Z,18
2018-06-12T05:17:10.330Z,18
2018-06-12T05:18:12.522Z,18
2018-06-12T05:20:14.779Z,18
2018-06-12T05:21:16.159Z,17.8
2018-06-12T05:22:18.095Z,18
2018-06-12T05:23:19.330Z,18
2018-06-12T05:24:20.495Z,17.9
2018-06-12T05:25:21.775Z,18.1
2018-06-12T05:26:22.947Z,18.1
2018-06-12T05:27:24.131Z,18.1
2018-06-12T05:28:25.395Z,18.1
2018-06-12T05:29:26.547Z,18.2
2018-06-12T05:30:27.821Z,18.3
2018-06-12T05:31:29.028Z,18.3
2018-06-12T05:32:30.261Z,18.5
2018-06-12T05:33:31.437Z,18.5
2018-06-12T05:34:32.612Z,18.5
2018-06-12T05:35:33.881Z,18.6
2018-06-12T05:36:35.062Z,18.5
2018-06-12T05:37:36.209Z,18.5
2018-06-12T05:38:37.446Z,18.7
2018-06-12T05:39:38.588Z,18.8
2018-06-12T05:40:39.816Z,19
2018-06-12T05:41:40.992Z,19
2018-06-12T05:42:42.216Z,19
2018-06-12T05:43:43.433Z,18.9
2018-06-12T05:44:44.613Z,18.9
2018-06-12T05:45:45.831Z,18.8
2018-06-12T05:46:46.985Z,18.9
2018-06-12T05:47:48.363Z,19
2018-06-12T05:48:49.624Z,19.1
2018-06-12T05:49:50.863Z,19
2018-06-12T05:50:52.249Z,19.2
2018-06-12T05:51:53.445Z,19.2
2018-06-12T05:52:55.534Z,19.2
2018-06-12T05:53:58.517Z,19.3
2018-06-12T05:54:59.687Z,19.3
2018-06-12T05:56:00.909Z,19.2
2018-06-12T05:57:02.075Z,19.4
2018-06-12T05:58:03.276Z,19.3
2018-06-12T05:59:04.473Z,19.3
2018-06-12T06:00:05.830Z,19.2
2018-06-12T06:01:07.241Z,19.1
2018-06-12T06:02:08.677Z,19.1
2018-06-12T06:03:10.127Z,19.2
2018-06-12T06:04:11.442Z,19.1
2018-06-12T06:05:12.691Z,19.2
2018-06-12T06:06:13.925Z,19.1
2018-06-12T06:07:15.162Z,18.9
2018-06-12T06:08:16.385Z,18.6
2018-06-12T06:09:17.729Z,18.6
2018-06-12T06:10:18.965Z,18.3
2018-06-12T06:11:20.387Z,18.4
2018-06-12T06:12:21.875Z,18.3
2018-06-12T06:13:23.720Z,18.5
2018-06-12T06:14:24.913Z,18.8
2018-06-12T06:15:26.129Z,18.9
2018-06-12T06:16:27.488Z,18.9
2018-06-12T06:17:28.959Z,19.1
2018-06-12T06:18:30.365Z,19.2
2018-06-12T06:19:31.539Z,19.2
2018-06-12T06:20:32.757Z,19.3
2018-06-12T06:21:34.219Z,19.1
2018-06-12T06:22:35.526Z,19.3
2018-06-12T06:23:36.735Z,19
2018-06-12T06:24:38.088Z,19.2
2018-06-12T06:25:39.430Z,19.4
2018-06-12T06:26:40.679Z,19
2018-06-12T06:27:41.998Z,19
2018-06-12T06:28:43.215Z,19
2018-06-12T06:29:44.539Z,19.1
2018-06-12T06:30:45.713Z,19.1
2018-06-12T06:31:46.962Z,18.9
2018-06-12T06:32:49.619Z,18.9
2018-06-12T06:33:51.901Z,18.8
2018-06-12T06:34:53.128Z,19
2018-06-12T06:35:54.330Z,19.1
2018-06-12T06:36:55.827Z,19.1
2018-06-12T06:37:57.062Z,19.3
2018-06-12T06:38:58.340Z,19.1
2018-06-12T06:40:03.211Z,18.4
2018-06-12T06:41:04.439Z,18.5
2018-06-12T06:42:05.796Z,18.4
2018-06-12T06:43:07.422Z,18.6
2018-06-12T06:44:09.270Z,18.5
2018-06-12T06:45:10.977Z,18.5
2018-06-12T06:46:12.140Z,18.4
2018-06-12T06:47:13.429Z,18.6
2018-06-12T06:48:14.680Z,18.6
2018-06-12T06:49:15.953Z,18.8
2018-06-12T06:50:18.227Z,18.9
2018-06-12T06:51:19.887Z,18.7
2018-06-12T06:52:22.120Z,18.7
2018-06-12T06:53:23.346Z,18.8
2018-06-12T06:54:24.593Z,18.9
2018-06-12T06:55:25.955Z,19.1
2018-06-12T06:56:27.377Z,19.2
2018-06-12T06:57:29.946Z,19.2
2018-06-12T06:58:31.337Z,19.4
2018-06-12T06:59:32.665Z,19.4
2018-06-12T07:00:33.828Z,19.4
2018-06-12T07:01:34.978Z,19.4
2018-06-12T07:02:41.406Z,19.4
2018-06-12T07:03:42.726Z,19.4
2018-06-12T07:04:43.890Z,19.2
2018-06-12T07:05:45.037Z,19
2018-06-12T07:06:46.188Z,19.2
2018-06-12T07:07:47.377Z,19.1
2018-06-12T07:08:48.560Z,19
2018-06-12T07:09:49.780Z,19.6
2018-06-12T07:10:50.953Z,19.8
2018-06-12T07:11:52.091Z,20
2018-06-12T07:12:53.292Z,20.1
2018-06-12T07:13:54.471Z,19.8
2018-06-12T07:14:55.645Z,19.5
2018-06-12T07:15:56.827Z,19.9
2018-06-12T07:16:57.989Z,20
2018-06-12T07:17:59.208Z,20.1
2018-06-12T07:19:00.389Z,19.6
2018-06-12T07:20:01.574Z,19.9
2018-06-12T07:21:02.865Z,20
2018-06-12T07:22:04.036Z,19.9
2018-06-12T07:23:05.424Z,20.1
2018-06-12T07:24:06.590Z,20.1
2018-06-12T07:25:07.850Z,20.1
2018-06-12T07:26:09.003Z,20.4
2018-06-12T07:27:10.204Z,20.4
2018-06-12T07:28:11.434Z,20.7
2018-06-12T07:29:12.633Z,20.7
2018-06-12T07:30:14.774Z,20.5
2018-06-12T07:31:15.958Z,20.7
2018-06-12T07:32:17.106Z,21.3
2018-06-12T07:33:18.380Z,21.7
2018-06-12T07:34:19.606Z,21.6
2018-06-12T07:35:20.757Z,22.4
2018-06-12T07:36:21.885Z,21.9
2018-06-12T07:37:23.037Z,22
2018-06-12T07:38:24.224Z,22
2018-06-12T07:39:25.377Z,21.6
2018-06-12T07:40:26.537Z,22.1
2018-06-12T07:41:27.690Z,22
2018-06-12T07:42:28.945Z,22
2018-06-12T07:43:30.183Z,22
2018-06-12T07:44:31.287Z,22.1
2018-06-12T07:45:32.505Z,22
2018-06-12T07:46:33.679Z,22
2018-06-12T07:47:34.849Z,22.1
2018-06-12T07:48:36.078Z,22.1
2018-06-12T07:49:37.517Z,21.7
2018-06-12T07:50:38.669Z,21.6
2018-06-12T07:51:39.840Z,21.8
2018-06-12T07:52:41.048Z,21.9
2018-06-12T07:53:42.527Z,22
2018-06-12T07:54:43.747Z,22.2
2018-06-12T07:55:45.003Z,22.2
2018-06-12T07:56:46.165Z,22.2
2018-06-12T07:57:47.309Z,21.9
2018-06-12T07:58:48.486Z,21.8
2018-06-12T07:59:49.647Z,21.7
2018-06-12T08:00:50.808Z,21.4
2018-06-12T08:01:51.969Z,21.5
2018-06-12T08:02:53.124Z,21.5
2018-06-12T08:03:54.341Z,21.7
2018-06-12T08:04:55.485Z,21.3
2018-06-12T08:05:56.661Z,21.5
2018-06-12T08:06:58.007Z,21.5
2018-06-12T08:07:59.212Z,21.9
2018-06-12T08:09:00.532Z,22
2018-06-12T08:10:01.749Z,21.9
2018-06-12T08:11:02.915Z,22
2018-06-12T08:12:04.083Z,21.8
2018-06-12T08:13:05.342Z,21.3
2018-06-12T08:14:06.604Z,21.4
2018-06-12T08:15:07.796Z,21.5
2018-06-12T08:16:09.060Z,21.8
2018-06-12T08:17:10.261Z,21.8
2018-06-12T08:18:11.469Z,21.7
2018-06-12T08:19:12.807Z,21.9
2018-06-12T08:20:14.006Z,21.8
2018-06-12T08:21:15.205Z,22
2018-06-12T08:22:16.378Z,21.6
2018-06-12T08:23:17.560Z,21.2
2018-06-12T08:24:18.835Z,21.5
2018-06-12T08:25:20.054Z,21.8
2018-06-12T08:26:21.776Z,21.9
2018-06-12T08:27:23.296Z,21.8
2018-06-12T08:28:24.492Z,21.4
2018-06-12T08:29:25.712Z,21.8
2018-06-12T08:30:26.921Z,21.9
2018-06-12T08:31:28.118Z,22
2018-06-12T08:32:29.290Z,22
2018-06-12T08:33:30.473Z,21.7
2018-06-12T08:34:31.679Z,21.8
2018-06-12T08:35:32.909Z,22.1
2018-06-12T08:36:34.067Z,22.2
2018-06-12T08:37:35.550Z,22.1
2018-06-12T08:38:36.779Z,22.2
2018-06-12T08:39:38.076Z,22.3
2018-06-12T08:40:39.242Z,22.3
2018-06-12T08:41:40.436Z,22.4
2018-06-12T08:42:41.693Z,22.2
2018-06-12T08:43:42.893Z,22.4
2018-06-12T08:44:44.770Z,22.4
2018-06-12T08:45:49.283Z,22.2
2018-06-12T08:46:50.619Z,22.3
2018-06-12T08:47:52.179Z,22
2018-06-12T08:48:53.792Z,21.9
2018-06-12T08:49:55.162Z,21.8
2018-06-12T08:50:56.554Z,22
2018-06-12T08:51:58.329Z,22
2018-06-12T08:53:00.156Z,21.7
2018-06-12T08:54:01.652Z,21.8
2018-06-12T08:55:02.952Z,22
2018-06-12T08:56:04.200Z,22
2018-06-12T08:57:05.564Z,22.1
2018-06-12T08:58:06.995Z,21.3
2018-06-12T08:59:08.257Z,21.5
2018-06-12T09:00:09.503Z,21.9
2018-06-12T09:01:10.677Z,21.8
2018-06-12T09:02:11.818Z,22.2
2018-06-12T09:03:12.960Z,22.1
2018-06-12T09:04:14.168Z,22.3
2018-06-12T09:05:15.361Z,22.4
2018-06-12T09:06:16.517Z,22.4
2018-06-12T09:07:17.698Z,22.5
2018-06-12T09:08:18.903Z,22.6
2018-06-12T09:09:20.148Z,22.6
2018-06-12T09:10:22.393Z,22.6
2018-06-12T09:11:23.592Z,22.8
2018-06-12T09:12:25.059Z,22.7
2018-06-12T09:13:26.223Z,22.6
2018-06-12T09:14:27.420Z,22.7
2018-06-12T09:15:28.728Z,22.8
2018-06-12T09:16:29.985Z,22.9
2018-06-12T09:17:31.146Z,22.9
2018-06-12T09:18:32.318Z,22.9
2018-06-12T09:19:33.571Z,23
2018-06-12T09:20:34.836Z,23
2018-06-12T09:21:36.531Z,22.9
2018-06-12T09:22:45.245Z,22.8
2018-06-12T09:23:46.706Z,22.9
2018-06-12T09:24:47.975Z,22.9
2018-06-12T09:25:49.532Z,22.9
2018-06-12T09:26:50.797Z,23
2018-06-12T09:27:51.992Z,23
2018-06-12T09:28:53.281Z,22.2
2018-06-12T09:29:54.580Z,22.6
2018-06-12T09:30:55.805Z,22.6
2018-06-12T09:31:58.799Z,22.8
2018-06-12T09:33:01.328Z,22.9
2018-06-12T09:34:02.540Z,22.8
2018-06-12T09:35:03.730Z,22.9
2018-06-12T09:36:04.934Z,23.1
2018-06-12T09:37:06.124Z,22.7
2018-06-12T09:38:09.330Z,22.8
2018-06-12T09:39:10.577Z,22.9
2018-06-12T09:40:11.872Z,23
2018-06-12T09:41:13.134Z,22.9
2018-06-12T09:42:14.350Z,22.9
2018-06-12T09:43:15.581Z,22.4
2018-06-12T09:44:16.765Z,22.6
2018-06-12T09:45:17.975Z,22.9
2018-06-12T09:46:25.824Z,23
2018-06-12T09:47:27.897Z,22.9
2018-06-12T09:48:29.114Z,22.8
2018-06-12T09:49:30.313Z,22.7
2018-06-12T09:50:31.518Z,22.8
2018-06-12T09:51:32.732Z,22.8
2018-06-12T09:52:33.892Z,23
2018-06-12T09:53:35.084Z,22.7
2018-06-12T09:54:36.363Z,22.4
2018-06-12T09:55:37.734Z,22.6
2018-06-12T09:56:39.223Z,22.6
2018-06-12T09:57:40.446Z,22.8
2018-06-12T09:58:41.595Z,23
2018-06-12T09:59:42.794Z,23.1
2018-06-12T10:00:44.023Z,23.3
2018-06-12T10:01:45.415Z,23.2
2018-06-12T10:02:46.703Z,23.1
2018-06-12T10:03:49.904Z,23.4
2018-06-12T10:04:51.431Z,23.2
2018-06-12T10:05:53.138Z,23.3
2018-06-12T10:06:54.414Z,23.4
2018-06-12T10:07:56.770Z,23.2
2018-06-12T10:08:58.798Z,23.2
2018-06-12T10:10:00.076Z,23.1
2018-06-12T10:11:01.439Z,23.4
2018-06-12T10:12:02.736Z,23.5
2018-06-12T10:13:03.950Z,23.6
2018-06-12T10:14:05.165Z,23.6
2018-06-12T10:15:06.357Z,23.6
2018-06-12T10:16:07.534Z,23.6
2018-06-12T10:17:15.472Z,23.5
2018-06-12T10:18:16.684Z,23.3
2018-06-12T10:19:17.935Z,23.5
2018-06-12T10:20:19.243Z,23.6
2018-06-12T10:21:20.486Z,23.7
2018-06-12T10:22:21.704Z,23.6
2018-06-12T10:23:22.892Z,23.6
2018-06-12T10:24:24.075Z,23.5
2018-06-12T10:25:25.240Z,23.6
2018-06-12T10:26:26.396Z,23.7
2018-06-12T10:27:27.919Z,23.7
2018-06-12T10:28:29.213Z,23.6
2018-06-12T10:29:30.413Z,23.8
2018-06-12T10:30:31.944Z,23.8
2018-06-12T10:31:35.851Z,23.8
2018-06-12T10:32:37.060Z,23.7
2018-06-12T10:33:38.242Z,23.7
2018-06-12T10:34:39.505Z,23.4
2018-06-12T10:35:40.683Z,23.3
2018-06-12T10:36:41.914Z,22.7
2018-06-12T10:37:43.104Z,22.8
2018-06-12T10:38:44.273Z,23.2
2018-06-12T10:39:45.438Z,23.4
2018-06-12T10:40:46.628Z,23.5
2018-06-12T10:41:47.829Z,23.6
2018-06-12T10:42:49.232Z,23.7
2018-06-12T10:43:50.455Z,23.7
2018-06-12T10:44:51.636Z,23.5
2018-06-12T10:45:52.817Z,23.6
2018-06-12T10:46:54.026Z,23.6
2018-06-12T10:47:55.287Z,23.2
2018-06-12T10:48:56.577Z,23.4
2018-06-12T10:49:58.151Z,23.5
2018-06-12T10:50:59.355Z,23.5
2018-06-12T10:52:00.522Z,23.4
2018-06-12T10:53:01.778Z,23.6
2018-06-12T10:54:03.254Z,23.6
2018-06-12T10:55:04.450Z,23.5
2018-06-12T10:56:05.602Z,23.3
2018-06-12T10:57:06.775Z,23.3
2018-06-12T10:58:08.198Z,23.3
2018-06-12T10:59:09.529Z,23.4
2018-06-12T11:00:10.726Z,23.4
2018-06-12T11:01:11.855Z,23.4
2018-06-12T11:02:13.081Z,23.5
2018-06-12T11:03:14.438Z,23.4
2018-06-12T11:04:15.790Z,23.4
2018-06-12T11:05:16.955Z,23.6
2018-06-12T11:06:18.140Z,23.6
2018-06-12T11:07:19.417Z,23.7
2018-06-12T11:08:20.677Z,23.3
2018-06-12T11:09:21.965Z,23.1
2018-06-12T11:10:23.262Z,23.4
2018-06-12T11:11:24.459Z,23.6
2018-06-12T11:12:25.612Z,23.5
2018-06-12T11:13:26.849Z,23.4
2018-06-12T11:14:28.053Z,23.3
2018-06-12T11:15:31.910Z,23.3
2018-06-12T11:16:33.145Z,23.3
2018-06-12T11:17:36.930Z,23.2
2018-06-12T11:18:39.881Z,23.5
2018-06-12T11:19:41.066Z,23.5
2018-06-12T11:20:42.334Z,23.5
2018-06-12T11:21:43.478Z,23.4
2018-06-12T11:22:44.817Z,23.5
2018-06-12T11:23:46.112Z,23.5
2018-06-12T11:24:47.303Z,23.5
2018-06-12T11:25:48.547Z,23.3
2018-06-12T11:26:49.736Z,23.5
2018-06-12T11:27:50.894Z,23.5
2018-06-12T11:28:52.100Z,23.5
2018-06-12T11:29:54.238Z,23.6
2018-06-12T11:30:55.384Z,23.6
2018-06-12T11:31:56.611Z,23.7
2018-06-12T11:32:57.763Z,23.7
2018-06-12T11:33:59.104Z,23.2
2018-06-12T11:35:00.333Z,23.1
2018-06-12T11:36:01.553Z,23.1
2018-06-12T11:37:02.722Z,23.3
2018-06-12T11:38:03.865Z,23.4
2018-06-12T11:39:05.089Z,23.6
2018-06-12T11:40:06.296Z,23.7
2018-06-12T11:41:07.538Z,23.8
2018-06-12T11:42:08.737Z,23.8
2018-06-12T11:43:10.126Z,23.7
2018-06-12T11:44:11.609Z,23.3
2018-06-12T11:45:12.793Z,23.6
2018-06-12T11:46:14.030Z,23.4
2018-06-12T11:47:15.386Z,23.5
2018-06-12T11:48:16.620Z,23.5
2018-06-12T11:49:17.930Z,23.6
2018-06-12T11:50:19.230Z,23.6
2018-06-12T11:51:20.444Z,23.6
2018-06-12T11:52:21.630Z,23.7
2018-06-12T11:53:22.789Z,23.8
2018-06-12T11:54:24.065Z,23.9
2018-06-12T11:55:25.302Z,23.8
2018-06-12T11:56:26.481Z,23.4
2018-06-12T11:57:27.752Z,23.5
2018-06-12T11:58:29.051Z,23.3
2018-06-12T11:59:30.241Z,23.1
2018-06-12T12:00:31.411Z,23.4
2018-06-12T12:01:35.221Z,23.6
2018-06-12T12:02:36.397Z,23.6
2018-06-12T12:03:37.627Z,23.7
2018-06-12T12:04:38.951Z,23.7
2018-06-12T12:05:40.134Z,23.8
2018-06-12T12:06:41.310Z,23.9
2018-06-12T12:07:44.409Z,23.4
2018-06-12T12:08:45.798Z,23.4
2018-06-12T12:09:46.981Z,23.6
2018-06-12T12:10:48.180Z,23.4
2018-06-12T12:11:49.551Z,23.5
2018-06-12T12:14:09.337Z,23.5
2018-06-12T12:15:11.891Z,23.6
2018-06-12T12:16:13.978Z,23.8
2018-06-12T12:17:15.598Z,23.8
2018-06-12T12:18:18.518Z,24
2018-06-12T12:19:20.496Z,24
2018-06-12T12:20:23.497Z,24
2018-06-12T12:21:26.693Z,24.1
2018-06-12T12:22:28.734Z,24.3
2018-06-12T12:23:30.829Z,24.3
2018-06-12T12:24:32.876Z,24.1
2018-06-12T12:25:34.684Z,24.3
2018-06-12T12:26:36.674Z,24.4
2018-06-12T12:27:39.417Z,24.5
2018-06-12T12:28:41.096Z,24.4
2018-06-12T12:29:42.188Z,24.4
2018-06-12T12:30:43.653Z,24.5
2018-06-12T12:31:44.904Z,24.3
2018-06-12T12:32:46.139Z,24.4
2018-06-12T12:33:47.477Z,24.4
2018-06-12T12:34:48.649Z,24.4
2018-06-12T12:35:49.957Z,24.4
2018-06-12T12:36:51.372Z,24.3
2018-06-12T12:37:52.559Z,24.3
2018-06-12T12:38:53.841Z,24.4
2018-06-12T12:39:55.140Z,24.5
2018-06-12T12:40:56.336Z,24.6
2018-06-12T12:41:57.570Z,24.5
2018-06-12T12:42:58.862Z,24.4
2018-06-12T12:44:00.245Z,24.3
2018-06-12T12:45:01.521Z,24.3
2018-06-12T12:46:02.976Z,24.4
2018-06-12T12:47:04.345Z,24.5
2018-06-12T12:48:06.393Z,24.5
2018-06-12T12:49:07.801Z,24.7
2018-06-12T12:50:09.215Z,24.7
2018-06-12T12:51:10.490Z,24.5
2018-06-12T12:52:16.380Z,24.5
2018-06-12T12:53:17.818Z,24.5
2018-06-12T12:54:19.145Z,24.7
2018-06-12T12:55:20.489Z,24.7
2018-06-12T12:56:21.846Z,24.5
2018-06-12T12:57:23.132Z,24.6
2018-06-12T12:58:24.503Z,24.8
2018-06-12T12:59:25.732Z,24.8
2018-06-12T13:00:26.961Z,24.7
2018-06-12T13:01:28.690Z,24.6
2018-06-12T13:02:30.664Z,24.4
2018-06-12T13:03:31.912Z,24.5
2018-06-12T13:04:33.308Z,24.5
2018-06-12T13:05:34.704Z,24.2
2018-06-12T13:06:36.427Z,24.4
2018-06-12T13:07:37.643Z,24.3
2018-06-12T13:08:38.822Z,24.5
2018-06-12T13:09:40.051Z,24.6
2018-06-12T13:10:41.382Z,24.6
2018-06-12T13:11:42.775Z,24.6
2018-06-12T13:12:44.355Z,24.7
2018-06-12T13:13:45.767Z,24.7
2018-06-12T13:14:47.091Z,24.7
2018-06-12T13:15:48.442Z,24.9
2018-06-12T13:16:49.764Z,24.7
2018-06-12T13:17:50.937Z,24.5
2018-06-12T13:18:54.194Z,24.7
2018-06-12T13:19:55.382Z,24.6
2018-06-12T13:20:56.863Z,24.7
2018-06-12T13:21:58.355Z,24.8
2018-06-12T13:22:59.939Z,24.8
2018-06-12T13:24:01.407Z,24.6
2018-06-12T13:25:02.659Z,24.4
2018-06-12T13:26:03.956Z,24.4
2018-06-12T13:27:05.189Z,24.4
2018-06-12T13:28:07.431Z,24.4
2018-06-12T13:29:10.299Z,24.4
2018-06-12T13:30:11.773Z,24.2
2018-06-12T13:31:13.230Z,24.4
2018-06-12T13:32:14.796Z,24.4
2018-06-12T13:33:16.276Z,24.5
2018-06-12T13:34:17.585Z,24.5
2018-06-12T13:35:19.029Z,24.5
2018-06-12T13:36:20.635Z,24.6
2018-06-12T13:37:22.302Z,24.5
2018-06-12T13:38:23.858Z,24.7
2018-06-12T13:39:25.162Z,24.8
2018-06-12T13:40:26.514Z,24.8
2018-06-12T13:41:27.966Z,24.8
2018-06-12T13:42:29.812Z,24.7
2018-06-12T13:43:31.159Z,24.5
2018-06-12T13:44:32.644Z,24.5
2018-06-12T13:45:33.942Z,24.5
2018-06-12T13:46:35.311Z,24.5
2018-06-12T13:47:36.617Z,24.5
2018-06-12T13:48:37.984Z,24.3
2018-06-12T13:49:39.427Z,24.5
2018-06-12T13:50:40.804Z,24.4
2018-06-12T13:51:42.119Z,24.5
2018-06-12T13:52:44.222Z,24.4